• Join FlightAware (Why Join?)
  • Login
  • US Flag 
06:15AM EDT


 

Airport Tracker/Info


-or-


 

Live Flight TrackerFlight Track Log ✈ N400S ✈ 02-Jul-2013 ✈ KMJX - N14

Flight Track Log - Related Links

Times and Time Zones

All times are in EDT time to prevent confusion due to time zone crossing. See the N400S flight status page for this flight to view local times or setup timezone preferences in your user account.

Time Position Orientation Groundspeed Altitude Reporting Facility
EDT Latitude Longitude Course Direction KTS MPH feet Rate Location/Type
10:37AM 40.1434 -74.3131 294° West  Level FlightAware Approximate
10:38AM 40.1657 -74.3801 294° West  Level FlightAware Approximate
10:39AM 40.1880 -74.4472 294° West  Level FlightAware Approximate
10:40AM 40.1802 -74.5050 220° Southwest  Level FlightAware Approximate
10:41AM 40.1373 -74.5519 220° Southwest  Level FlightAware Approximate
10:42AM 40.0944 -74.5987 220° Southwest  Level FlightAware Approximate
10:43AM 40.0514 -74.6455 220° Southwest  Level FlightAware Approximate
10:44AM 40.0097 -74.6938 229° Southwest  Level FlightAware Approximate
10:45AM 39.9723 -74.7481 226° Southwest  Level FlightAware Approximate
10:46AM 39.9333 -74.8000 226° Southwest  Level FlightAware Approximate
10:47AM 39.9343 -74.8072 226° Southwest  Level Estimated
10:48AM 39.9333 -74.8000 226° Southwest  Level FlightAware Approximate
10:49AM 39.9343 -74.8072 226° Southwest  Level Estimated
10:50AM 39.9333 -74.8000 226° Southwest  Level FlightAware Approximate
10:51AM 39.9343 -74.8072 226° Southwest  Level Estimated
10:52AM 39.9333 -74.8000 226° Southwest  Level FlightAware Approximate
10:53AM 39.9343 -74.8072 226° Southwest  Level Estimated
10:54AM 39.9333 -74.8000 226° Southwest  Level FlightAware Approximate
10:55AM 39.9343 -74.8072 226° Southwest  Level Estimated
10:56AM 39.9333 -74.8000 226° Southwest  Level FlightAware Approximate
10:57AM 39.9343 -74.8072 226° Southwest  Level Estimated
10:58AM 39.9333 -74.8000 226° Southwest  Level FlightAware Approximate
10:59AM 39.9343 -74.8072 226° Southwest  Level Estimated
11:00AM 39.9333 -74.8000 226° Southwest  Level FlightAware Approximate
11:01AM 39.9343 -74.8072 226° Southwest  Level Estimated
11:02AM 39.9333 -74.8000 226° Southwest  Level FlightAware Approximate